X  Zatvori METAR podaci zračne luke     LYNI Nis Airport
Temperatura
46°F Temperatura
39°F Točka rosišta
76% Vlaga



Vjetar
10 MPS
16 KM/S
4 M/S
9 Čvorovi



90°
I
Trenutna situacija

Pretežno oblačno Pretežno oblačno
Tlak zraka 1023.92 (hPa) - 30.24 (inHg)
Vidljivost 6.2 (milje) - 10 (km)
Zračna luka
Kôd zračne luke LYNI

Lokacija: Nis Airport
Udaljenost: 63 (mi)

Metar:
LYNI 040430Z 09009KT 9999 BKN047 08/04 Q1024 NOSIG

Vrijeme: 04-12-2022 05:30 CET